sensor_id;sensor_type;location;lat;lon;timestamp;P1;durP1;ratioP1;P2;durP2;ratioP2
1999;SDS011;1001;48.87406500;9.59633600;2023-05-07T00:00:35;2.47;;;1.90;;
1999;SDS011;1001;48.87406500;9.59633600;2023-05-07T00:04:00;2.30;;;2.10;;
1999;SDS011;1001;48.87406500;9.59633600;2023-05-07T00:07:25;2.97;;;1.90;;
1999;SDS011;1001;48.87406500;9.59633600;2023-05-07T00:10:51;2.67;;;1.93;;
1999;SDS011;1001;48.87406500;9.59633600;2023-05-07T00:14:16;4.30;;;2.00;;
1999;SDS011;1001;48.87406500;9.59633600;2023-05-07T00:17:42;6.30;;;1.90;;
1999;SDS011;1001;48.87406500;9.59633600;2023-05-07T00:21:07;2.23;;;1.97;;
1999;SDS011;1001;48.87406500;9.59633600;2023-05-07T00:24:35;1.73;;;1.63;;
1999;SDS011;1001;48.87406500;9.59633600;2023-05-07T00:28:00;2.90;;;1.90;;
1999;SDS011;1001;48.87406500;9.59633600;2023-05-07T00:31:25;2.27;;;2.00;;
1999;SDS011;1001;48.87406500;9.59633600;2023-05-07T00:34:51;3.20;;;2.23;;
1999;SDS011;1001;48.87406500;9.59633600;2023-05-07T00:38:17;2.90;;;2.43;;
1999;SDS011;1001;48.87406500;9.59633600;2023-05-07T00:41:42;3.27;;;1.80;;
1999;SDS011;1001;48.87406500;9.59633600;2023-05-07T00:45:07;4.10;;;1.93;;
1999;SDS011;1001;48.87406500;9.59633600;2023-05-07T00:48:32;8.57;;;2.03;;
1999;SDS011;1001;48.87406500;9.59633600;2023-05-07T00:52:04;4.07;;;2.40;;
1999;SDS011;1001;48.87406500;9.59633600;2023-05-07T00:55:30;1.57;;;1.43;;
1999;SDS011;1001;48.87406500;9.59633600;2023-05-07T00:58:55;4.20;;;1.93;;
1999;SDS011;1001;48.87406500;9.59633600;2023-05-07T01:02:20;2.90;;;2.10;;
1999;SDS011;1001;48.87406500;9.59633600;2023-05-07T01:05:46;1.90;;;1.60;;
1999;SDS011;1001;48.87406500;9.59633600;2023-05-07T01:09:14;2.77;;;2.20;;
1999;SDS011;1001;48.87406500;9.59633600;2023-05-07T01:12:40;4.33;;;2.17;;
1999;SDS011;1001;48.87406500;9.59633600;2023-05-07T01:16:06;2.43;;;2.23;;
1999;SDS011;1001;48.87406500;9.59633600;2023-05-07T01:19:32;3.47;;;2.20;;
1999;SDS011;1001;48.87406500;9.59633600;2023-05-07T01:22:58;2.37;;;1.83;;
1999;SDS011;1001;48.87406500;9.59633600;2023-05-07T01:26:25;5.23;;;1.90;;
1999;SDS011;1001;48.87406500;9.59633600;2023-05-07T01:29:50;3.03;;;1.87;;
1999;SDS011;1001;48.87406500;9.59633600;2023-05-07T01:33:19;2.13;;;1.93;;
1999;SDS011;1001;48.87406500;9.59633600;2023-05-07T01:36:47;2.50;;;1.73;;
1999;SDS011;1001;48.87406500;9.59633600;2023-05-07T01:40:14;2.43;;;1.87;;
1999;SDS011;1001;48.87406500;9.59633600;2023-05-07T01:43:40;3.23;;;1.93;;
1999;SDS011;1001;48.87406500;9.59633600;2023-05-07T01:47:06;2.70;;;2.33;;
1999;SDS011;1001;48.87406500;9.59633600;2023-05-07T01:50:32;2.70;;;2.20;;
1999;SDS011;1001;48.87406500;9.59633600;2023-05-07T01:53:57;3.63;;;2.53;;
1999;SDS011;1001;48.87406500;9.59633600;2023-05-07T01:57:24;2.10;;;1.90;;
1999;SDS011;1001;48.87406500;9.59633600;2023-05-07T02:00:49;3.37;;;2.20;;
1999;SDS011;1001;48.87406500;9.59633600;2023-05-07T02:04:14;2.77;;;2.17;;
1999;SDS011;1001;48.87406500;9.59633600;2023-05-07T02:07:39;5.83;;;2.27;;
1999;SDS011;1001;48.87406500;9.59633600;2023-05-07T02:11:04;2.80;;;2.10;;
1999;SDS011;1001;48.87406500;9.59633600;2023-05-07T02:14:31;3.60;;;2.07;;
1999;SDS011;1001;48.87406500;9.59633600;2023-05-07T02:18:00;2.50;;;2.30;;
1999;SDS011;1001;48.87406500;9.59633600;2023-05-07T02:21:25;2.53;;;2.23;;
1999;SDS011;1001;48.87406500;9.59633600;2023-05-07T02:24:50;3.00;;;2.17;;
1999;SDS011;1001;48.87406500;9.59633600;2023-05-07T02:28:15;2.40;;;2.10;;
1999;SDS011;1001;48.87406500;9.59633600;2023-05-07T02:31:42;2.73;;;2.03;;
1999;SDS011;1001;48.87406500;9.59633600;2023-05-07T02:35:07;4.83;;;1.97;;
1999;SDS011;1001;48.87406500;9.59633600;2023-05-07T02:38:33;2.03;;;1.83;;
1999;SDS011;1001;48.87406500;9.59633600;2023-05-07T02:41:58;2.77;;;1.83;;
1999;SDS011;1001;48.87406500;9.59633600;2023-05-07T02:45:24;3.03;;;2.17;;
1999;SDS011;1001;48.87406500;9.59633600;2023-05-07T02:48:50;2.20;;;2.00;;
1999;SDS011;1001;48.87406500;9.59633600;2023-05-07T02:52:15;3.07;;;2.10;;
1999;SDS011;1001;48.87406500;9.59633600;2023-05-07T02:55:40;2.97;;;2.57;;
1999;SDS011;1001;48.87406500;9.59633600;2023-05-07T02:59:05;2.33;;;1.90;;
1999;SDS011;1001;48.87406500;9.59633600;2023-05-07T03:02:37;2.33;;;2.13;;
1999;SDS011;1001;48.87406500;9.59633600;2023-05-07T03:06:04;3.10;;;2.63;;
1999;SDS011;1001;48.87406500;9.59633600;2023-05-07T03:09:29;2.20;;;1.90;;
1999;SDS011;1001;48.87406500;9.59633600;2023-05-07T03:12:54;3.60;;;2.17;;
1999;SDS011;1001;48.87406500;9.59633600;2023-05-07T03:16:19;3.43;;;2.50;;
1999;SDS011;1001;48.87406500;9.59633600;2023-05-07T03:19:46;2.37;;;2.17;;
1999;SDS011;1001;48.87406500;9.59633600;2023-05-07T03:23:13;2.77;;;2.27;;
1999;SDS011;1001;48.87406500;9.59633600;2023-05-07T03:26:38;2.60;;;1.97;;
1999;SDS011;1001;48.87406500;9.59633600;2023-05-07T03:30:03;2.47;;;2.10;;
1999;SDS011;1001;48.87406500;9.59633600;2023-05-07T03:33:29;2.90;;;2.47;;
1999;SDS011;1001;48.87406500;9.59633600;2023-05-07T03:36:54;2.80;;;2.33;;
1999;SDS011;1001;48.87406500;9.59633600;2023-05-07T03:40:20;3.80;;;2.40;;
1999;SDS011;1001;48.87406500;9.59633600;2023-05-07T03:43:45;1.73;;;1.63;;
1999;SDS011;1001;48.87406500;9.59633600;2023-05-07T03:47:10;4.70;;;2.00;;
1999;SDS011;1001;48.87406500;9.59633600;2023-05-07T03:50:35;4.70;;;2.07;;
1999;SDS011;1001;48.87406500;9.59633600;2023-05-07T03:54:01;3.07;;;2.40;;
1999;SDS011;1001;48.87406500;9.59633600;2023-05-07T03:57:28;2.90;;;2.47;;
1999;SDS011;1001;48.87406500;9.59633600;2023-05-07T04:00:53;2.40;;;2.20;;
1999;SDS011;1001;48.87406500;9.59633600;2023-05-07T04:04:18;2.60;;;2.40;;
1999;SDS011;1001;48.87406500;9.59633600;2023-05-07T04:07:43;3.30;;;2.43;;
1999;SDS011;1001;48.87406500;9.59633600;2023-05-07T04:11:08;2.57;;;2.17;;
1999;SDS011;1001;48.87406500;9.59633600;2023-05-07T04:14:35;4.70;;;2.20;;
1999;SDS011;1001;48.87406500;9.59633600;2023-05-07T04:18:01;2.70;;;2.43;;
1999;SDS011;1001;48.87406500;9.59633600;2023-05-07T04:21:26;2.63;;;2.20;;
1999;SDS011;1001;48.87406500;9.59633600;2023-05-07T04:24:51;4.07;;;2.80;;
1999;SDS011;1001;48.87406500;9.59633600;2023-05-07T04:28:16;2.20;;;2.00;;
1999;SDS011;1001;48.87406500;9.59633600;2023-05-07T04:31:43;2.60;;;2.40;;
1999;SDS011;1001;48.87406500;9.59633600;2023-05-07T04:35:09;2.30;;;2.10;;
1999;SDS011;1001;48.87406500;9.59633600;2023-05-07T04:38:34;2.03;;;1.90;;
1999;SDS011;1001;48.87406500;9.59633600;2023-05-07T04:42:00;3.10;;;2.10;;
1999;SDS011;1001;48.87406500;9.59633600;2023-05-07T04:45:25;2.70;;;2.50;;
1999;SDS011;1001;48.87406500;9.59633600;2023-05-07T04:48:51;3.13;;;2.07;;
1999;SDS011;1001;48.87406500;9.59633600;2023-05-07T04:52:16;3.90;;;1.87;;
1999;SDS011;1001;48.87406500;9.59633600;2023-05-07T04:55:42;2.17;;;1.97;;
1999;SDS011;1001;48.87406500;9.59633600;2023-05-07T04:59:07;3.43;;;1.67;;
1999;SDS011;1001;48.87406500;9.59633600;2023-05-07T05:02:34;7.07;;;1.83;;
1999;SDS011;1001;48.87406500;9.59633600;2023-05-07T05:06:00;3.23;;;1.93;;
1999;SDS011;1001;48.87406500;9.59633600;2023-05-07T05:09:25;2.00;;;1.80;;
1999;SDS011;1001;48.87406500;9.59633600;2023-05-07T05:12:50;4.03;;;1.67;;
1999;SDS011;1001;48.87406500;9.59633600;2023-05-07T05:16:16;1.90;;;1.77;;
1999;SDS011;1001;48.87406500;9.59633600;2023-05-07T05:19:41;2.60;;;1.73;;
1999;SDS011;1001;48.87406500;9.59633600;2023-05-07T05:23:07;2.90;;;1.90;;
1999;SDS011;1001;48.87406500;9.59633600;2023-05-07T05:26:33;2.00;;;1.80;;
1999;SDS011;1001;48.87406500;9.59633600;2023-05-07T05:29:58;3.03;;;2.27;;
1999;SDS011;1001;48.87406500;9.59633600;2023-05-07T05:33:23;3.57;;;1.67;;
1999;SDS011;1001;48.87406500;9.59633600;2023-05-07T05:36:48;3.70;;;2.20;;
1999;SDS011;1001;48.87406500;9.59633600;2023-05-07T05:40:15;2.30;;;2.10;;
1999;SDS011;1001;48.87406500;9.59633600;2023-05-07T05:43:40;2.57;;;1.90;;
1999;SDS011;1001;48.87406500;9.59633600;2023-05-07T05:47:05;2.80;;;1.77;;
1999;SDS011;1001;48.87406500;9.59633600;2023-05-07T05:50:30;2.07;;;1.87;;
1999;SDS011;1001;48.87406500;9.59633600;2023-05-07T05:53:55;3.40;;;2.00;;
1999;SDS011;1001;48.87406500;9.59633600;2023-05-07T05:57:22;2.90;;;1.80;;
1999;SDS011;1001;48.87406500;9.59633600;2023-05-07T06:00:47;2.40;;;1.60;;
1999;SDS011;1001;48.87406500;9.59633600;2023-05-07T06:04:12;2.33;;;1.83;;
1999;SDS011;1001;48.87406500;9.59633600;2023-05-07T06:07:37;3.90;;;1.93;;
1999;SDS011;1001;48.87406500;9.59633600;2023-05-07T06:11:02;2.40;;;2.13;;
1999;SDS011;1001;48.87406500;9.59633600;2023-05-07T06:14:29;1.70;;;1.57;;
1999;SDS011;1001;48.87406500;9.59633600;2023-05-07T06:17:54;4.93;;;1.77;;
1999;SDS011;1001;48.87406500;9.59633600;2023-05-07T06:21:19;3.50;;;2.20;;
1999;SDS011;1001;48.87406500;9.59633600;2023-05-07T06:24:44;3.17;;;1.67;;
1999;SDS011;1001;48.87406500;9.59633600;2023-05-07T06:28:12;3.17;;;1.80;;
1999;SDS011;1001;48.87406500;9.59633600;2023-05-07T06:31:38;2.50;;;1.50;;
1999;SDS011;1001;48.87406500;9.59633600;2023-05-07T06:35:04;3.00;;;1.57;;
1999;SDS011;1001;48.87406500;9.59633600;2023-05-07T06:38:29;3.37;;;2.13;;
1999;SDS011;1001;48.87406500;9.59633600;2023-05-07T06:41:54;2.43;;;2.00;;
1999;SDS011;1001;48.87406500;9.59633600;2023-05-07T06:45:19;2.20;;;2.00;;
1999;SDS011;1001;48.87406500;9.59633600;2023-05-07T06:48:46;1.60;;;1.50;;
1999;SDS011;1001;48.87406500;9.59633600;2023-05-07T06:52:11;1.43;;;1.23;;
1999;SDS011;1001;48.87406500;9.59633600;2023-05-07T06:55:36;2.97;;;1.70;;
1999;SDS011;1001;48.87406500;9.59633600;2023-05-07T06:59:01;2.33;;;1.90;;
1999;SDS011;1001;48.87406500;9.59633600;2023-05-07T07:02:27;2.47;;;1.63;;
1999;SDS011;1001;48.87406500;9.59633600;2023-05-07T07:05:53;1.80;;;1.70;;
1999;SDS011;1001;48.87406500;9.59633600;2023-05-07T07:09:19;4.50;;;1.97;;
1999;SDS011;1001;48.87406500;9.59633600;2023-05-07T07:12:44;2.63;;;2.20;;
1999;SDS011;1001;48.87406500;9.59633600;2023-05-07T07:16:09;2.87;;;2.00;;
1999;SDS011;1001;48.87406500;9.59633600;2023-05-07T07:19:35;2.87;;;1.70;;
1999;SDS011;1001;48.87406500;9.59633600;2023-05-07T07:23:01;2.57;;;2.37;;
1999;SDS011;1001;48.87406500;9.59633600;2023-05-07T07:26:26;3.10;;;2.50;;
1999;SDS011;1001;48.87406500;9.59633600;2023-05-07T07:29:51;2.13;;;1.90;;
1999;SDS011;1001;48.87406500;9.59633600;2023-05-07T07:33:16;2.37;;;2.17;;
1999;SDS011;1001;48.87406500;9.59633600;2023-05-07T07:36:41;9.47;;;2.83;;
1999;SDS011;1001;48.87406500;9.59633600;2023-05-07T07:40:09;2.93;;;2.63;;
1999;SDS011;1001;48.87406500;9.59633600;2023-05-07T07:43:34;3.43;;;2.23;;
1999;SDS011;1001;48.87406500;9.59633600;2023-05-07T07:46:59;3.00;;;2.80;;
1999;SDS011;1001;48.87406500;9.59633600;2023-05-07T07:50:24;2.50;;;2.30;;
1999;SDS011;1001;48.87406500;9.59633600;2023-05-07T07:53:49;4.27;;;2.40;;
1999;SDS011;1001;48.87406500;9.59633600;2023-05-07T07:57:16;3.50;;;2.30;;
1999;SDS011;1001;48.87406500;9.59633600;2023-05-07T08:00:41;4.00;;;2.27;;
1999;SDS011;1001;48.87406500;9.59633600;2023-05-07T08:04:06;2.70;;;2.50;;
1999;SDS011;1001;48.87406500;9.59633600;2023-05-07T08:07:31;2.10;;;1.90;;
1999;SDS011;1001;48.87406500;9.59633600;2023-05-07T08:10:56;5.60;;;2.60;;
1999;SDS011;1001;48.87406500;9.59633600;2023-05-07T08:14:23;3.43;;;2.63;;
1999;SDS011;1001;48.87406500;9.59633600;2023-05-07T08:17:48;4.10;;;2.50;;
1999;SDS011;1001;48.87406500;9.59633600;2023-05-07T08:21:13;3.27;;;2.30;;
1999;SDS011;1001;48.87406500;9.59633600;2023-05-07T08:24:39;3.10;;;2.00;;
1999;SDS011;1001;48.87406500;9.59633600;2023-05-07T08:28:04;1.97;;;1.87;;
1999;SDS011;1001;48.87406500;9.59633600;2023-05-07T08:31:30;2.73;;;2.13;;
1999;SDS011;1001;48.87406500;9.59633600;2023-05-07T08:34:55;2.60;;;2.33;;
1999;SDS011;1001;48.87406500;9.59633600;2023-05-07T08:38:20;2.23;;;2.03;;
1999;SDS011;1001;48.87406500;9.59633600;2023-05-07T08:41:45;4.60;;;2.20;;
1999;SDS011;1001;48.87406500;9.59633600;2023-05-07T08:45:15;2.63;;;2.10;;
1999;SDS011;1001;48.87406500;9.59633600;2023-05-07T08:48:44;1.90;;;1.80;;
1999;SDS011;1001;48.87406500;9.59633600;2023-05-07T08:52:09;2.87;;;2.20;;
1999;SDS011;1001;48.87406500;9.59633600;2023-05-07T08:55:36;2.27;;;1.60;;
1999;SDS011;1001;48.87406500;9.59633600;2023-05-07T08:59:01;4.13;;;1.30;;
1999;SDS011;1001;48.87406500;9.59633600;2023-05-07T09:02:26;3.23;;;2.50;;
1999;SDS011;1001;48.87406500;9.59633600;2023-05-07T09:05:53;2.47;;;2.10;;
1999;SDS011;1001;48.87406500;9.59633600;2023-05-07T09:09:18;4.10;;;1.70;;
1999;SDS011;1001;48.87406500;9.59633600;2023-05-07T09:12:43;2.50;;;1.70;;
1999;SDS011;1001;48.87406500;9.59633600;2023-05-07T09:16:12;3.33;;;2.43;;
1999;SDS011;1001;48.87406500;9.59633600;2023-05-07T09:19:37;1.93;;;1.77;;
1999;SDS011;1001;48.87406500;9.59633600;2023-05-07T09:23:04;3.83;;;1.50;;
1999;SDS011;1001;48.87406500;9.59633600;2023-05-07T09:26:29;2.90;;;1.70;;
1999;SDS011;1001;48.87406500;9.59633600;2023-05-07T09:29:55;2.07;;;1.87;;
1999;SDS011;1001;48.87406500;9.59633600;2023-05-07T09:33:21;6.30;;;1.60;;
1999;SDS011;1001;48.87406500;9.59633600;2023-05-07T09:36:46;1.90;;;1.70;;
1999;SDS011;1001;48.87406500;9.59633600;2023-05-07T09:40:21;3.80;;;1.50;;
1999;SDS011;1001;48.87406500;9.59633600;2023-05-07T09:43:46;1.77;;;1.53;;
1999;SDS011;1001;48.87406500;9.59633600;2023-05-07T09:47:18;2.10;;;1.60;;
1999;SDS011;1001;48.87406500;9.59633600;2023-05-07T09:49:47;4.37;;;1.63;;
1999;SDS011;1001;48.87406500;9.59633600;2023-05-07T09:52:16;6.63;;;1.83;;
1999;SDS011;1001;48.87406500;9.59633600;2023-05-07T09:54:43;7.70;;;2.20;;
1999;SDS011;1001;48.87406500;9.59633600;2023-05-07T09:57:14;2.47;;;1.60;;
1999;SDS011;1001;48.87406500;9.59633600;2023-05-07T09:59:43;3.90;;;1.47;;
1999;SDS011;1001;48.87406500;9.59633600;2023-05-07T10:02:11;2.57;;;2.00;;
1999;SDS011;1001;48.87406500;9.59633600;2023-05-07T10:04:40;1.57;;;1.47;;
1999;SDS011;1001;48.87406500;9.59633600;2023-05-07T10:07:08;3.00;;;1.70;;
1999;SDS011;1001;48.87406500;9.59633600;2023-05-07T10:09:35;2.67;;;1.90;;
1999;SDS011;1001;48.87406500;9.59633600;2023-05-07T10:12:08;1.70;;;1.50;;
1999;SDS011;1001;48.87406500;9.59633600;2023-05-07T10:14:37;2.73;;;1.90;;
1999;SDS011;1001;48.87406500;9.59633600;2023-05-07T10:17:04;2.10;;;1.70;;
1999;SDS011;1001;48.87406500;9.59633600;2023-05-07T10:19:33;2.50;;;1.43;;
1999;SDS011;1001;48.87406500;9.59633600;2023-05-07T10:22:02;4.33;;;2.17;;
1999;SDS011;1001;48.87406500;9.59633600;2023-05-07T10:24:32;4.93;;;1.90;;
1999;SDS011;1001;48.87406500;9.59633600;2023-05-07T10:27:00;1.70;;;1.60;;
1999;SDS011;1001;48.87406500;9.59633600;2023-05-07T10:29:33;2.33;;;1.43;;
1999;SDS011;1001;48.87406500;9.59633600;2023-05-07T10:32:16;5.67;;;1.93;;
1999;SDS011;1001;48.87406500;9.59633600;2023-05-07T10:35:10;3.87;;;2.13;;
1999;SDS011;1001;48.87406500;9.59633600;2023-05-07T10:37:38;2.40;;;1.73;;
1999;SDS011;1001;48.87406500;9.59633600;2023-05-07T10:40:05;2.13;;;1.80;;
1999;SDS011;1001;48.87406500;9.59633600;2023-05-07T10:42:32;1.80;;;1.60;;
1999;SDS011;1001;48.87406500;9.59633600;2023-05-07T10:44:58;2.50;;;1.60;;
1999;SDS011;1001;48.87406500;9.59633600;2023-05-07T10:47:37;3.20;;;2.03;;
1999;SDS011;1001;48.87406500;9.59633600;2023-05-07T10:50:24;1.70;;;1.60;;
1999;SDS011;1001;48.87406500;9.59633600;2023-05-07T10:55:36;2.53;;;2.33;;
1999;SDS011;1001;48.87406500;9.59633600;2023-05-07T11:00:43;3.97;;;1.90;;
1999;SDS011;1001;48.87406500;9.59633600;2023-05-07T11:03:10;3.30;;;1.90;;
1999;SDS011;1001;48.87406500;9.59633600;2023-05-07T11:05:38;2.37;;;1.60;;
1999;SDS011;1001;48.87406500;9.59633600;2023-05-07T11:08:05;2.00;;;1.80;;
1999;SDS011;1001;48.87406500;9.59633600;2023-05-07T11:10:50;1.60;;;1.50;;
1999;SDS011;1001;48.87406500;9.59633600;2023-05-07T11:13:17;2.60;;;1.77;;
1999;SDS011;1001;48.87406500;9.59633600;2023-05-07T11:15:44;3.30;;;1.70;;
1999;SDS011;1001;48.87406500;9.59633600;2023-05-07T11:18:11;3.20;;;1.97;;
1999;SDS011;1001;48.87406500;9.59633600;2023-05-07T11:20:45;1.60;;;1.50;;
1999;SDS011;1001;48.87406500;9.59633600;2023-05-07T11:25:57;6.50;;;1.60;;
1999;SDS011;1001;48.87406500;9.59633600;2023-05-07T11:28:24;2.03;;;1.90;;
1999;SDS011;1001;48.87406500;9.59633600;2023-05-07T11:30:50;3.33;;;1.87;;
1999;SDS011;1001;48.87406500;9.59633600;2023-05-07T11:33:17;2.53;;;1.73;;
1999;SDS011;1001;48.87406500;9.59633600;2023-05-07T11:35:46;2.03;;;1.83;;
1999;SDS011;1001;48.87406500;9.59633600;2023-05-07T11:38:13;2.10;;;1.90;;
1999;SDS011;1001;48.87406500;9.59633600;2023-05-07T11:40:48;3.20;;;1.70;;
1999;SDS011;1001;48.87406500;9.59633600;2023-05-07T11:43:14;1.80;;;1.50;;
1999;SDS011;1001;48.87406500;9.59633600;2023-05-07T11:45:41;1.70;;;1.53;;
1999;SDS011;1001;48.87406500;9.59633600;2023-05-07T11:48:07;2.17;;;1.57;;
1999;SDS011;1001;48.87406500;9.59633600;2023-05-07T11:50:34;2.70;;;1.90;;
1999;SDS011;1001;48.87406500;9.59633600;2023-05-07T11:53:06;3.83;;;1.80;;
1999;SDS011;1001;48.87406500;9.59633600;2023-05-07T11:55:33;3.90;;;2.43;;
1999;SDS011;1001;48.87406500;9.59633600;2023-05-07T11:57:59;1.90;;;1.73;;
1999;SDS011;1001;48.87406500;9.59633600;2023-05-07T12:00:26;1.90;;;1.67;;
1999;SDS011;1001;48.87406500;9.59633600;2023-05-07T12:02:52;2.70;;;1.77;;
1999;SDS011;1001;48.87406500;9.59633600;2023-05-07T12:05:18;2.53;;;1.70;;
1999;SDS011;1001;48.87406500;9.59633600;2023-05-07T12:07:45;3.90;;;2.27;;
1999;SDS011;1001;48.87406500;9.59633600;2023-05-07T12:10:13;2.30;;;1.53;;
1999;SDS011;1001;48.87406500;9.59633600;2023-05-07T12:12:39;6.50;;;2.00;;
1999;SDS011;1001;48.87406500;9.59633600;2023-05-07T12:15:07;5.30;;;1.90;;
1999;SDS011;1001;48.87406500;9.59633600;2023-05-07T12:17:33;2.80;;;1.67;;
1999;SDS011;1001;48.87406500;9.59633600;2023-05-07T12:20:00;2.30;;;1.60;;
1999;SDS011;1001;48.87406500;9.59633600;2023-05-07T12:22:27;3.27;;;1.37;;
1999;SDS011;1001;48.87406500;9.59633600;2023-05-07T12:24:56;3.30;;;1.90;;
1999;SDS011;1001;48.87406500;9.59633600;2023-05-07T12:27:25;2.03;;;1.73;;
1999;SDS011;1001;48.87406500;9.59633600;2023-05-07T12:29:51;4.50;;;1.67;;
1999;SDS011;1001;48.87406500;9.59633600;2023-05-07T12:32:18;2.50;;;1.73;;
1999;SDS011;1001;48.87406500;9.59633600;2023-05-07T12:34:45;1.73;;;1.63;;
1999;SDS011;1001;48.87406500;9.59633600;2023-05-07T12:37:12;2.53;;;1.90;;
1999;SDS011;1001;48.87406500;9.59633600;2023-05-07T12:39:42;2.60;;;2.10;;
1999;SDS011;1001;48.87406500;9.59633600;2023-05-07T12:42:10;2.70;;;1.93;;
1999;SDS011;1001;48.87406500;9.59633600;2023-05-07T12:44:43;3.60;;;1.80;;
1999;SDS011;1001;48.87406500;9.59633600;2023-05-07T12:47:11;2.80;;;1.60;;
1999;SDS011;1001;48.87406500;9.59633600;2023-05-07T12:49:37;2.23;;;1.50;;
1999;SDS011;1001;48.87406500;9.59633600;2023-05-07T12:52:05;2.07;;;1.80;;
1999;SDS011;1001;48.87406500;9.59633600;2023-05-07T12:54:31;1.67;;;1.47;;
1999;SDS011;1001;48.87406500;9.59633600;2023-05-07T12:57:01;1.90;;;1.63;;
1999;SDS011;1001;48.87406500;9.59633600;2023-05-07T12:59:32;1.90;;;1.70;;
1999;SDS011;1001;48.87406500;9.59633600;2023-05-07T13:02:00;2.77;;;1.93;;
1999;SDS011;1001;48.87406500;9.59633600;2023-05-07T13:04:26;2.67;;;2.20;;
1999;SDS011;1001;48.87406500;9.59633600;2023-05-07T13:06:52;4.47;;;2.70;;
1999;SDS011;1001;48.87406500;9.59633600;2023-05-07T13:09:19;8.20;;;2.97;;
1999;SDS011;1001;48.87406500;9.59633600;2023-05-07T13:11:45;2.83;;;2.53;;
1999;SDS011;1001;48.87406500;9.59633600;2023-05-07T13:14:12;2.53;;;2.33;;
1999;SDS011;1001;48.87406500;9.59633600;2023-05-07T13:16:38;2.57;;;2.37;;
1999;SDS011;1001;48.87406500;9.59633600;2023-05-07T13:19:06;2.77;;;2.10;;
1999;SDS011;1001;48.87406500;9.59633600;2023-05-07T13:21:32;2.77;;;2.50;;
1999;SDS011;1001;48.87406500;9.59633600;2023-05-07T13:23:58;2.83;;;2.30;;
1999;SDS011;1001;48.87406500;9.59633600;2023-05-07T13:26:25;3.23;;;2.40;;
1999;SDS011;1001;48.87406500;9.59633600;2023-05-07T13:28:51;5.10;;;2.57;;
1999;SDS011;1001;48.87406500;9.59633600;2023-05-07T13:31:18;4.13;;;2.80;;
1999;SDS011;1001;48.87406500;9.59633600;2023-05-07T13:33:45;2.77;;;2.57;;
1999;SDS011;1001;48.87406500;9.59633600;2023-05-07T13:36:14;3.50;;;3.20;;
1999;SDS011;1001;48.87406500;9.59633600;2023-05-07T13:38:40;3.20;;;2.90;;
1999;SDS011;1001;48.87406500;9.59633600;2023-05-07T13:41:06;4.63;;;3.77;;
1999;SDS011;1001;48.87406500;9.59633600;2023-05-07T13:43:33;3.47;;;3.20;;
1999;SDS011;1001;48.87406500;9.59633600;2023-05-07T13:45:59;5.17;;;3.53;;
1999;SDS011;1001;48.87406500;9.59633600;2023-05-07T13:48:26;4.00;;;3.70;;
1999;SDS011;1001;48.87406500;9.59633600;2023-05-07T13:50:53;4.90;;;3.47;;
1999;SDS011;1001;48.87406500;9.59633600;2023-05-07T13:53:21;3.50;;;3.00;;
1999;SDS011;1001;48.87406500;9.59633600;2023-05-07T13:55:47;4.20;;;3.37;;
1999;SDS011;1001;48.87406500;9.59633600;2023-05-07T13:58:13;3.50;;;3.20;;
1999;SDS011;1001;48.87406500;9.59633600;2023-05-07T14:00:40;4.00;;;3.60;;
1999;SDS011;1001;48.87406500;9.59633600;2023-05-07T14:03:06;3.70;;;3.40;;
1999;SDS011;1001;48.87406500;9.59633600;2023-05-07T14:05:32;3.53;;;2.83;;
1999;SDS011;1001;48.87406500;9.59633600;2023-05-07T14:08:00;4.20;;;3.40;;
1999;SDS011;1001;48.87406500;9.59633600;2023-05-07T14:10:27;2.93;;;2.67;;
1999;SDS011;1001;48.87406500;9.59633600;2023-05-07T14:12:54;4.43;;;3.00;;
1999;SDS011;1001;48.87406500;9.59633600;2023-05-07T14:15:20;3.50;;;3.07;;
1999;SDS011;1001;48.87406500;9.59633600;2023-05-07T14:17:47;4.17;;;3.80;;
1999;SDS011;1001;48.87406500;9.59633600;2023-05-07T14:20:13;3.77;;;3.40;;
1999;SDS011;1001;48.87406500;9.59633600;2023-05-07T14:22:40;3.80;;;3.50;;
1999;SDS011;1001;48.87406500;9.59633600;2023-05-07T14:25:06;3.93;;;3.10;;
1999;SDS011;1001;48.87406500;9.59633600;2023-05-07T14:27:35;3.47;;;3.17;;
1999;SDS011;1001;48.87406500;9.59633600;2023-05-07T14:30:02;4.47;;;3.20;;
1999;SDS011;1001;48.87406500;9.59633600;2023-05-07T14:32:28;3.10;;;2.90;;
1999;SDS011;1001;48.87406500;9.59633600;2023-05-07T14:34:55;3.33;;;3.13;;
1999;SDS011;1001;48.87406500;9.59633600;2023-05-07T14:37:21;3.90;;;2.80;;
1999;SDS011;1001;48.87406500;9.59633600;2023-05-07T14:39:47;3.17;;;2.10;;
1999;SDS011;1001;48.87406500;9.59633600;2023-05-07T14:42:14;2.23;;;2.03;;
1999;SDS011;1001;48.87406500;9.59633600;2023-05-07T14:44:41;2.67;;;2.47;;
1999;SDS011;1001;48.87406500;9.59633600;2023-05-07T14:47:09;3.87;;;3.57;;
1999;SDS011;1001;48.87406500;9.59633600;2023-05-07T14:49:36;4.20;;;3.80;;
1999;SDS011;1001;48.87406500;9.59633600;2023-05-07T14:52:02;4.83;;;4.43;;
1999;SDS011;1001;48.87406500;9.59633600;2023-05-07T14:54:33;5.77;;;4.77;;
1999;SDS011;1001;48.87406500;9.59633600;2023-05-07T14:56:59;5.03;;;4.63;;
1999;SDS011;1001;48.87406500;9.59633600;2023-05-07T14:59:25;4.87;;;4.40;;
1999;SDS011;1001;48.87406500;9.59633600;2023-05-07T15:01:53;6.07;;;4.27;;
1999;SDS011;1001;48.87406500;9.59633600;2023-05-07T15:04:20;4.83;;;4.20;;
1999;SDS011;1001;48.87406500;9.59633600;2023-05-07T15:06:46;4.63;;;4.10;;
1999;SDS011;1001;48.87406500;9.59633600;2023-05-07T15:09:12;4.70;;;4.30;;
1999;SDS011;1001;48.87406500;9.59633600;2023-05-07T15:11:39;6.37;;;4.70;;
1999;SDS011;1001;48.87406500;9.59633600;2023-05-07T15:14:05;4.40;;;4.00;;
1999;SDS011;1001;48.87406500;9.59633600;2023-05-07T15:16:32;5.63;;;3.60;;
1999;SDS011;1001;48.87406500;9.59633600;2023-05-07T15:19:00;4.90;;;3.83;;
1999;SDS011;1001;48.87406500;9.59633600;2023-05-07T15:21:26;7.00;;;3.00;;
1999;SDS011;1001;48.87406500;9.59633600;2023-05-07T15:23:53;3.03;;;2.50;;
1999;SDS011;1001;48.87406500;9.59633600;2023-05-07T15:26:19;3.40;;;2.77;;
1999;SDS011;1001;48.87406500;9.59633600;2023-05-07T15:28:46;2.90;;;2.70;;
1999;SDS011;1001;48.87406500;9.59633600;2023-05-07T15:31:12;4.10;;;2.70;;
1999;SDS011;1001;48.87406500;9.59633600;2023-05-07T15:33:39;5.90;;;2.90;;
1999;SDS011;1001;48.87406500;9.59633600;2023-05-07T15:36:07;6.77;;;3.40;;
1999;SDS011;1001;48.87406500;9.59633600;2023-05-07T15:38:34;4.90;;;2.40;;
1999;SDS011;1001;48.87406500;9.59633600;2023-05-07T15:41:00;2.30;;;1.90;;
1999;SDS011;1001;48.87406500;9.59633600;2023-05-07T15:43:26;3.20;;;2.20;;
1999;SDS011;1001;48.87406500;9.59633600;2023-05-07T15:45:53;2.70;;;2.17;;
1999;SDS011;1001;48.87406500;9.59633600;2023-05-07T15:48:19;2.23;;;1.90;;
1999;SDS011;1001;48.87406500;9.59633600;2023-05-07T15:50:46;2.50;;;2.00;;
1999;SDS011;1001;48.87406500;9.59633600;2023-05-07T15:53:13;1.90;;;1.80;;
1999;SDS011;1001;48.87406500;9.59633600;2023-05-07T15:55:40;3.00;;;1.80;;
1999;SDS011;1001;48.87406500;9.59633600;2023-05-07T15:58:07;2.60;;;1.80;;
1999;SDS011;1001;48.87406500;9.59633600;2023-05-07T16:00:33;2.53;;;1.80;;
1999;SDS011;1001;48.87406500;9.59633600;2023-05-07T16:03:00;1.97;;;1.77;;
1999;SDS011;1001;48.87406500;9.59633600;2023-05-07T16:05:26;3.63;;;2.20;;
1999;SDS011;1001;48.87406500;9.59633600;2023-05-07T16:07:53;2.90;;;2.27;;